createdAt,value
2022-12-20T00:00:03.533Z,-0.28
2022-12-20T00:02:20.612Z,-0.29
2022-12-20T00:04:37.915Z,-0.30
2022-12-20T00:06:54.843Z,-0.29
2022-12-20T00:09:12.168Z,-0.29
2022-12-20T00:11:29.494Z,-0.30
2022-12-20T00:13:46.537Z,-0.29
2022-12-20T00:16:03.668Z,-0.31
2022-12-20T00:18:20.651Z,-0.30
2022-12-20T00:20:38.638Z,-0.30
2022-12-20T00:22:55.597Z,-0.31
2022-12-20T00:25:12.615Z,-0.31
2022-12-20T00:27:29.639Z,-0.34
2022-12-20T00:29:47.975Z,-0.35
2022-12-20T00:32:05.036Z,-0.36
2022-12-20T00:34:22.147Z,-0.37
2022-12-20T00:36:39.215Z,-0.37
2022-12-20T00:38:56.572Z,-0.38
2022-12-20T00:41:13.867Z,-0.37
2022-12-20T00:43:30.789Z,-0.36
2022-12-20T00:45:47.752Z,-0.36
2022-12-20T00:48:04.723Z,-0.36
2022-12-20T00:50:21.636Z,-0.34
2022-12-20T00:52:38.644Z,-0.36
2022-12-20T00:54:55.644Z,-0.35
2022-12-20T00:57:13.012Z,-0.34
2022-12-20T00:59:29.956Z,-0.33
2022-12-20T01:01:47.106Z,-0.34
2022-12-20T01:04:04.254Z,-0.32
2022-12-20T01:06:21.607Z,-0.32
2022-12-20T01:08:38.506Z,-0.30
2022-12-20T01:10:55.442Z,-0.30
2022-12-20T01:13:12.381Z,-0.28
2022-12-20T01:15:30.466Z,-0.28
2022-12-20T01:17:47.471Z,-0.27
2022-12-20T01:20:04.430Z,-0.28
2022-12-20T01:22:21.489Z,-0.28
2022-12-20T01:24:39.658Z,-0.28
2022-12-20T01:26:56.649Z,-0.26
2022-12-20T01:29:13.601Z,-0.24
2022-12-20T01:31:30.592Z,-0.24
2022-12-20T01:33:47.634Z,-0.23
2022-12-20T01:36:05.614Z,-0.24
2022-12-20T01:38:22.895Z,-0.24
2022-12-20T01:40:40.235Z,-0.25
2022-12-20T01:42:57.184Z,-0.25
2022-12-20T01:45:14.324Z,-0.23
2022-12-20T01:47:32.569Z,-0.23
2022-12-20T01:49:49.591Z,-0.23
2022-12-20T01:52:06.709Z,-0.23
2022-12-20T01:54:23.788Z,-0.22
2022-12-20T01:56:40.833Z,-0.23
2022-12-20T01:58:58.199Z,-0.20
2022-12-20T02:01:15.273Z,-0.20
2022-12-20T02:03:33.697Z,-0.18
2022-12-20T02:05:51.067Z,-0.17
2022-12-20T02:08:08.002Z,-0.15
2022-12-20T02:10:25.096Z,-0.14
2022-12-20T02:12:42.148Z,-0.12
2022-12-20T02:14:59.042Z,-0.11
2022-12-20T02:17:15.973Z,-0.09
2022-12-20T02:19:33.279Z,-0.07
2022-12-20T02:21:51.576Z,-0.07
2022-12-20T02:24:08.653Z,-0.04
2022-12-20T02:26:25.922Z,-0.03
2022-12-20T02:28:42.884Z,-0.02
2022-12-20T02:31:00.123Z,-0.01
2022-12-20T02:33:17.378Z,0.00
2022-12-20T02:35:34.655Z,0.03
2022-12-20T02:37:51.528Z,0.03
2022-12-20T02:40:08.412Z,0.06
2022-12-20T02:42:25.739Z,0.06
2022-12-20T02:44:42.751Z,0.07
2022-12-20T02:47:00.780Z,0.07
2022-12-20T02:49:18.768Z,0.09
2022-12-20T02:51:35.789Z,0.10
2022-12-20T02:53:53.538Z,0.08
2022-12-20T02:56:10.605Z,0.07
2022-12-20T02:58:27.539Z,0.07
2022-12-20T03:00:44.574Z,0.06
2022-12-20T03:03:01.647Z,0.05
2022-12-20T03:05:19.053Z,0.03
2022-12-20T03:07:35.927Z,0.02
2022-12-20T03:09:53.258Z,0.00
2022-12-20T03:12:10.287Z,0.02
2022-12-20T03:14:27.325Z,-0.01
2022-12-20T03:16:44.412Z,-0.03
2022-12-20T03:19:01.515Z,-0.05
2022-12-20T03:21:18.853Z,-0.06
2022-12-20T03:23:35.957Z,-0.08
2022-12-20T03:25:53.187Z,-0.09
2022-12-20T03:28:10.230Z,-0.12
2022-12-20T03:30:27.450Z,-0.17
2022-12-20T03:32:44.712Z,-0.22
2022-12-20T03:35:01.621Z,-0.25
2022-12-20T03:37:18.944Z,-0.28
2022-12-20T03:39:35.932Z,-0.31
2022-12-20T03:41:53.304Z,-0.30
2022-12-20T03:44:10.462Z,-0.30
2022-12-20T03:46:27.541Z,-0.32
2022-12-20T03:48:44.552Z,-0.34
2022-12-20T03:51:01.483Z,-0.35
2022-12-20T03:53:19.388Z,-0.40
2022-12-20T03:55:36.363Z,-0.43
2022-12-20T03:57:53.391Z,-0.46
2022-12-20T04:00:10.617Z,-0.50
2022-12-20T04:02:27.812Z,-0.54
2022-12-20T04:04:45.204Z,-0.56
2022-12-20T04:07:02.197Z,-0.58
2022-12-20T04:09:19.231Z,-0.60
2022-12-20T04:11:36.267Z,-0.60
2022-12-20T04:13:53.354Z,-0.62
2022-12-20T04:16:10.364Z,-0.61
2022-12-20T04:18:28.663Z,-0.62
2022-12-20T04:20:46.913Z,-0.61
2022-12-20T04:23:04.941Z,-0.61
2022-12-20T04:25:22.015Z,-0.59
2022-12-20T04:27:39.067Z,-0.59
2022-12-20T04:29:55.924Z,-0.57
2022-12-20T04:32:12.881Z,-0.54
2022-12-20T04:34:29.935Z,-0.53
2022-12-20T04:36:46.885Z,-0.51
2022-12-20T04:39:03.922Z,-0.50
2022-12-20T04:41:21.854Z,-0.48
2022-12-20T04:43:39.114Z,-0.47
2022-12-20T04:45:56.160Z,-0.44
2022-12-20T04:48:46.092Z,-0.43
2022-12-20T04:50:50.388Z,-0.41
2022-12-20T04:53:07.426Z,-0.38
2022-12-20T04:55:24.428Z,-0.35
2022-12-20T04:57:41.694Z,-0.34
2022-12-20T04:59:58.759Z,-0.32
2022-12-20T05:02:17.204Z,-0.30
2022-12-20T05:04:37.550Z,-0.29
2022-12-20T05:06:54.737Z,-0.28
2022-12-20T05:09:11.695Z,-0.24
2022-12-20T05:11:28.934Z,-0.21
2022-12-20T05:13:46.302Z,-0.18
2022-12-20T05:16:04.281Z,-0.17
2022-12-20T05:18:21.331Z,-0.14
2022-12-20T05:20:38.555Z,-0.11
2022-12-20T05:22:55.627Z,-0.11
2022-12-20T05:25:12.624Z,-0.08
2022-12-20T05:27:29.503Z,-0.05
2022-12-20T05:29:46.403Z,-0.04
2022-12-20T05:32:03.480Z,-0.03
2022-12-20T05:34:20.534Z,-0.01
2022-12-20T05:36:37.436Z,0.01
2022-12-20T05:38:58.212Z,0.03
2022-12-20T05:41:20.832Z,0.03
2022-12-20T05:43:37.834Z,0.03
2022-12-20T05:45:55.045Z,0.05
2022-12-20T05:48:12.119Z,0.06
2022-12-20T05:50:29.441Z,0.07
2022-12-20T05:52:46.665Z,0.07
2022-12-20T05:55:03.593Z,0.08
2022-12-20T05:57:20.520Z,0.09
2022-12-20T05:59:37.601Z,0.12
2022-12-20T06:01:54.706Z,0.16
2022-12-20T06:04:11.914Z,0.18
2022-12-20T06:06:28.871Z,0.17
2022-12-20T06:08:46.142Z,0.22
2022-12-20T06:11:03.391Z,0.25
2022-12-20T06:13:20.392Z,0.24
2022-12-20T06:15:37.705Z,0.26
2022-12-20T06:17:55.040Z,0.26
2022-12-20T06:20:12.034Z,0.29
2022-12-20T06:22:29.329Z,0.30
2022-12-20T06:24:48.744Z,0.30
2022-12-20T06:27:06.133Z,0.30
2022-12-20T06:29:23.098Z,0.31
2022-12-20T06:31:40.177Z,0.31
2022-12-20T06:33:57.212Z,0.33
2022-12-20T06:36:14.152Z,0.33
2022-12-20T06:38:31.391Z,0.34
2022-12-20T06:40:48.416Z,0.35
2022-12-20T06:43:05.455Z,0.38
2022-12-20T06:45:22.851Z,0.38
2022-12-20T06:47:39.898Z,0.37
2022-12-20T06:49:56.858Z,0.38
2022-12-20T06:52:13.744Z,0.37
2022-12-20T06:54:31.027Z,0.36
2022-12-20T06:56:47.890Z,0.37
2022-12-20T06:59:04.820Z,0.37
2022-12-20T07:01:21.910Z,0.38
2022-12-20T07:03:39.110Z,0.39
2022-12-20T07:05:56.091Z,0.38
2022-12-20T07:08:13.128Z,0.38
2022-12-20T07:10:30.245Z,0.36
2022-12-20T07:12:48.643Z,0.38
2022-12-20T07:15:05.667Z,0.39
2022-12-20T07:17:22.679Z,0.36
2022-12-20T07:19:42.086Z,0.38
2022-12-20T07:22:02.559Z,0.39
2022-12-20T07:24:19.648Z,0.39
2022-12-20T07:26:36.981Z,0.39
2022-12-20T07:28:54.199Z,0.39
2022-12-20T07:31:11.570Z,0.39
2022-12-20T07:33:28.642Z,0.41
2022-12-20T07:35:49.545Z,0.41
2022-12-20T07:38:11.145Z,0.41
2022-12-20T07:40:28.572Z,0.42
2022-12-20T07:42:48.950Z,0.42
2022-12-20T07:45:06.535Z,0.42
2022-12-20T07:47:24.524Z,0.44
2022-12-20T07:49:42.007Z,0.45
2022-12-20T07:51:58.994Z,0.46
2022-12-20T07:54:16.368Z,0.46
2022-12-20T07:56:39.153Z,0.47
2022-12-20T07:58:58.290Z,0.48
2022-12-20T08:01:15.597Z,0.48
2022-12-20T08:03:32.839Z,0.48
2022-12-20T08:05:50.296Z,0.49
2022-12-20T08:08:07.401Z,0.50
2022-12-20T08:10:24.649Z,0.50
2022-12-20T08:12:41.569Z,0.52
2022-12-20T08:14:59.466Z,0.53
2022-12-20T08:17:16.762Z,0.57
2022-12-20T08:19:34.115Z,0.59
2022-12-20T08:21:51.372Z,0.60
2022-12-20T08:24:08.376Z,0.61
2022-12-20T08:26:25.349Z,0.62
2022-12-20T08:28:42.410Z,0.62
2022-12-20T08:30:59.405Z,0.62
2022-12-20T08:33:16.494Z,0.63
2022-12-20T08:35:34.555Z,0.65
2022-12-20T08:37:51.812Z,0.64
2022-12-20T08:40:09.826Z,0.66
2022-12-20T08:42:26.920Z,0.66
2022-12-20T08:44:44.029Z,0.66
2022-12-20T08:47:01.338Z,0.67
2022-12-20T08:49:18.460Z,0.69
2022-12-20T08:51:35.607Z,0.69
2022-12-20T08:53:53.049Z,0.69
2022-12-20T08:56:10.188Z,0.69
2022-12-20T08:58:27.308Z,0.71
2022-12-20T09:00:44.260Z,0.69
2022-12-20T09:03:01.305Z,0.70
2022-12-20T09:05:18.787Z,0.71
2022-12-20T09:07:37.031Z,0.71
2022-12-20T09:09:53.968Z,0.72
2022-12-20T09:12:10.988Z,0.74
2022-12-20T09:14:27.893Z,0.74
2022-12-20T09:16:44.916Z,0.74
2022-12-20T09:19:05.609Z,0.76
2022-12-20T09:21:23.498Z,0.75
2022-12-20T09:23:40.567Z,0.76
2022-12-20T09:25:57.827Z,0.78
2022-12-20T09:28:14.894Z,0.78
2022-12-20T09:30:31.968Z,0.79
2022-12-20T09:32:48.954Z,0.83
2022-12-20T09:35:05.880Z,0.86
2022-12-20T09:37:23.218Z,0.87
2022-12-20T09:39:40.502Z,0.87
2022-12-20T09:41:57.446Z,0.89
2022-12-20T09:44:14.406Z,0.91
2022-12-20T09:46:31.592Z,0.96
2022-12-20T09:48:49.013Z,0.97
2022-12-20T09:51:06.017Z,0.96
2022-12-20T09:53:23.034Z,0.98
2022-12-20T09:55:40.053Z,1.01
2022-12-20T09:57:57.006Z,1.02
2022-12-20T10:00:14.037Z,1.05
2022-12-20T10:05:09.365Z,1.08
2022-12-20T10:07:26.347Z,1.11
2022-12-20T10:09:43.685Z,1.08
2022-12-20T10:12:00.751Z,1.08
2022-12-20T10:14:17.674Z,1.10
2022-12-20T10:16:34.852Z,1.14
2022-12-20T10:18:51.886Z,1.17
2022-12-20T10:21:08.838Z,1.21
2022-12-20T10:23:32.795Z,1.20
2022-12-20T10:25:50.545Z,1.22
2022-12-20T10:28:07.624Z,1.24
2022-12-20T10:30:24.704Z,1.25
2022-12-20T10:32:42.047Z,1.25
2022-12-20T10:34:59.106Z,1.26
2022-12-20T10:37:16.331Z,1.26
2022-12-20T10:39:33.241Z,1.26
2022-12-20T10:41:50.343Z,1.28
2022-12-20T10:44:07.314Z,1.27
2022-12-20T10:46:24.398Z,1.29
2022-12-20T10:48:41.340Z,1.32
2022-12-20T10:50:58.621Z,1.33
2022-12-20T10:53:15.953Z,1.32
2022-12-20T10:55:33.288Z,1.31
2022-12-20T10:57:50.222Z,1.32
2022-12-20T11:00:07.289Z,1.33
2022-12-20T11:02:24.427Z,1.35
2022-12-20T11:04:42.599Z,1.38
2022-12-20T11:06:59.958Z,1.42
2022-12-20T11:09:17.000Z,1.44
2022-12-20T11:11:34.936Z,1.50
2022-12-20T11:13:51.923Z,1.54
2022-12-20T11:16:09.211Z,1.58
2022-12-20T11:18:27.122Z,1.63
2022-12-20T11:20:44.477Z,1.65
2022-12-20T11:23:01.529Z,1.68
2022-12-20T11:25:18.555Z,1.71
2022-12-20T11:27:35.547Z,1.71
2022-12-20T11:29:52.761Z,1.74
2022-12-20T11:32:09.664Z,1.77
2022-12-20T11:34:26.634Z,1.82
2022-12-20T11:36:43.850Z,1.83
2022-12-20T11:39:01.179Z,1.86
2022-12-20T11:41:18.130Z,1.89
2022-12-20T11:43:48.094Z,1.93
2022-12-20T11:46:12.580Z,1.93
2022-12-20T11:48:29.493Z,1.94
2022-12-20T11:50:46.791Z,1.97
2022-12-20T11:53:03.817Z,1.98
2022-12-20T11:55:21.129Z,2.01
2022-12-20T11:58:01.744Z,2.03
2022-12-20T12:00:15.376Z,2.07
2022-12-20T12:02:32.755Z,2.14
2022-12-20T12:04:49.946Z,2.18
2022-12-20T12:07:07.071Z,2.24
2022-12-20T12:09:24.395Z,2.30
2022-12-20T12:12:06.601Z,2.35
2022-12-20T12:14:18.950Z,2.44
2022-12-20T12:16:36.236Z,2.52
2022-12-20T12:18:53.516Z,2.66
2022-12-20T12:21:10.783Z,2.78
2022-12-20T12:23:28.097Z,2.87
2022-12-20T12:25:45.174Z,2.99
2022-12-20T12:28:02.202Z,3.05
2022-12-20T12:30:19.232Z,3.07
2022-12-20T12:32:36.493Z,3.10
2022-12-20T12:34:53.573Z,3.13
2022-12-20T12:37:10.624Z,3.15
2022-12-20T12:39:27.885Z,3.16
2022-12-20T12:41:44.930Z,3.16
2022-12-20T12:44:02.298Z,3.16
2022-12-20T12:46:19.530Z,3.16
2022-12-20T12:48:36.527Z,3.18
2022-12-20T12:50:53.609Z,3.20
2022-12-20T12:53:10.981Z,3.24
2022-12-20T12:55:28.880Z,3.29
2022-12-20T12:57:46.186Z,3.33
2022-12-20T13:00:03.229Z,3.36
2022-12-20T13:02:20.417Z,3.45
2022-12-20T13:04:37.495Z,3.54
2022-12-20T13:06:54.762Z,3.62
2022-12-20T13:09:12.102Z,3.70
2022-12-20T13:11:29.352Z,3.75
2022-12-20T13:13:46.618Z,3.80
2022-12-20T13:16:03.963Z,3.80
2022-12-20T13:18:21.152Z,3.85
2022-12-20T13:20:38.472Z,3.88
2022-12-20T13:22:55.526Z,3.87
2022-12-20T13:25:12.576Z,3.87
2022-12-20T13:27:29.568Z,3.87
2022-12-20T13:29:46.829Z,3.85
2022-12-20T13:32:03.761Z,3.83
2022-12-20T13:34:20.678Z,3.82
2022-12-20T13:36:37.771Z,3.75
2022-12-20T13:38:56.163Z,3.66
2022-12-20T13:41:13.414Z,3.58
2022-12-20T13:43:30.486Z,3.55
2022-12-20T13:45:47.770Z,3.52
2022-12-20T13:48:11.094Z,3.52
2022-12-20T13:50:28.727Z,3.51
2022-12-20T13:52:46.003Z,3.44
2022-12-20T13:55:03.121Z,3.40
2022-12-20T13:57:20.275Z,3.40
2022-12-20T13:59:37.618Z,3.37
2022-12-20T14:01:54.580Z,3.38
2022-12-20T14:04:11.599Z,3.36
2022-12-20T14:06:28.786Z,3.34
2022-12-20T14:08:45.815Z,3.32
2022-12-20T14:11:02.885Z,3.31
2022-12-20T14:13:19.916Z,3.30
2022-12-20T14:15:36.853Z,3.33
2022-12-20T14:17:53.884Z,3.36
2022-12-20T14:20:10.872Z,3.41
2022-12-20T14:22:28.062Z,3.39
2022-12-20T14:24:45.363Z,3.33
2022-12-20T14:27:02.446Z,3.34
2022-12-20T14:29:19.396Z,3.33
2022-12-20T14:31:36.454Z,3.36
2022-12-20T14:33:53.753Z,3.39
2022-12-20T14:36:10.694Z,3.38
2022-12-20T14:38:27.718Z,3.40
2022-12-20T14:40:48.950Z,3.43
2022-12-20T14:43:09.158Z,3.47
2022-12-20T14:45:26.209Z,3.46
2022-12-20T14:47:43.123Z,3.47
2022-12-20T14:50:00.399Z,3.48
2022-12-20T14:52:17.811Z,3.50
2022-12-20T14:55:07.050Z,3.55
2022-12-20T14:57:11.795Z,3.53
2022-12-20T14:59:28.858Z,3.50
2022-12-20T15:01:47.241Z,3.46
2022-12-20T15:04:04.538Z,3.42
2022-12-20T15:06:21.871Z,3.39
2022-12-20T15:08:39.209Z,3.39
2022-12-20T15:10:56.195Z,3.36
2022-12-20T15:13:13.259Z,3.27
2022-12-20T15:15:30.208Z,3.19
2022-12-20T15:17:47.233Z,3.14
2022-12-20T15:20:04.506Z,3.09
2022-12-20T15:22:21.763Z,3.06
2022-12-20T15:24:38.622Z,3.04
2022-12-20T15:26:55.838Z,3.05
2022-12-20T15:29:12.798Z,3.05
2022-12-20T15:31:33.630Z,3.07
2022-12-20T15:33:51.300Z,3.01
2022-12-20T15:36:08.605Z,2.91
2022-12-20T15:38:47.749Z,2.85
2022-12-20T15:41:02.730Z,2.83
2022-12-20T15:43:20.014Z,2.80
2022-12-20T15:45:38.280Z,2.78
2022-12-20T15:47:55.678Z,2.76
2022-12-20T15:50:13.776Z,2.78
2022-12-20T15:52:30.753Z,2.74
2022-12-20T15:54:47.794Z,2.73
2022-12-20T15:57:05.069Z,2.73
2022-12-20T15:59:58.525Z,2.74
2022-12-20T16:01:59.000Z,2.74
2022-12-20T16:04:16.425Z,2.74
2022-12-20T16:06:33.828Z,2.74
2022-12-20T16:08:50.827Z,2.78
2022-12-20T16:11:08.147Z,2.77
2022-12-20T16:13:25.480Z,2.77
2022-12-20T16:15:42.726Z,2.72
2022-12-20T16:18:00.012Z,2.69
2022-12-20T16:20:18.021Z,2.67
2022-12-20T16:22:35.323Z,2.63
2022-12-20T16:24:52.681Z,2.63
2022-12-20T16:27:09.740Z,2.62
2022-12-20T16:29:27.097Z,2.54
2022-12-20T16:31:44.316Z,2.54
2022-12-20T16:34:01.613Z,2.57
2022-12-20T16:36:18.511Z,2.55
2022-12-20T16:38:35.728Z,2.51
2022-12-20T16:40:53.010Z,2.48
2022-12-20T16:43:10.051Z,2.48
2022-12-20T16:45:27.298Z,2.49
2022-12-20T16:47:44.380Z,2.50
2022-12-20T16:50:01.295Z,2.46
2022-12-20T16:52:18.387Z,2.49
2022-12-20T16:54:35.354Z,2.45
2022-12-20T16:56:52.410Z,2.44
2022-12-20T16:59:25.106Z,2.44
2022-12-20T17:01:42.238Z,2.46
2022-12-20T17:03:59.730Z,2.47
2022-12-20T17:06:17.075Z,2.49
2022-12-20T17:11:09.343Z,2.37
2022-12-20T17:13:26.653Z,2.40
2022-12-20T17:15:44.580Z,2.42
2022-12-20T17:18:01.610Z,2.40
2022-12-20T17:20:19.001Z,2.40
2022-12-20T17:25:10.172Z,2.41
2022-12-20T17:27:27.100Z,2.43
2022-12-20T17:29:44.379Z,2.43
2022-12-20T17:32:01.535Z,2.41
2022-12-20T17:34:18.577Z,2.36
2022-12-20T17:36:37.985Z,2.34
2022-12-20T17:38:55.694Z,2.35
2022-12-20T17:41:12.641Z,2.38
2022-12-20T17:43:29.966Z,2.41
2022-12-20T17:45:46.954Z,2.38
2022-12-20T17:48:04.352Z,2.35
2022-12-20T17:50:21.356Z,2.38
2022-12-20T17:52:38.647Z,2.38
2022-12-20T17:54:55.702Z,2.34
2022-12-20T17:57:13.795Z,2.32
2022-12-20T17:59:31.180Z,2.32
2022-12-20T18:01:48.637Z,2.35
2022-12-20T18:04:06.466Z,2.37
2022-12-20T18:06:23.885Z,2.32
2022-12-20T18:08:40.942Z,2.31
2022-12-20T18:10:58.298Z,2.33
2022-12-20T18:13:15.242Z,2.30
2022-12-20T18:15:32.170Z,2.28
2022-12-20T18:17:49.182Z,2.29
2022-12-20T18:20:06.199Z,2.23
2022-12-20T18:22:23.263Z,2.21
2022-12-20T18:24:40.620Z,2.18
2022-12-20T18:26:57.680Z,2.17
2022-12-20T18:29:14.939Z,2.16
2022-12-20T18:31:31.902Z,2.15
2022-12-20T18:33:52.504Z,2.20
2022-12-20T18:36:14.303Z,2.18
2022-12-20T18:38:31.713Z,2.14
2022-12-20T18:40:49.033Z,2.13
2022-12-20T18:43:07.108Z,2.14
2022-12-20T18:45:24.092Z,2.11
2022-12-20T18:47:41.442Z,2.13
2022-12-20T18:49:58.415Z,2.18
2022-12-20T18:52:15.429Z,2.18
2022-12-20T18:54:32.379Z,2.17
2022-12-20T18:56:49.432Z,2.14
2022-12-20T18:59:12.453Z,2.16
2022-12-20T19:01:30.063Z,2.16
2022-12-20T19:03:47.523Z,2.16
2022-12-20T19:06:04.867Z,2.18
2022-12-20T19:08:21.867Z,2.25
2022-12-20T19:10:40.219Z,2.23
2022-12-20T19:13:00.916Z,2.22
2022-12-20T19:15:22.288Z,2.22
2022-12-20T19:17:39.593Z,2.21
2022-12-20T19:19:57.024Z,2.21
2022-12-20T19:22:13.975Z,2.24
2022-12-20T19:24:30.905Z,2.24
2022-12-20T19:26:47.832Z,2.25
2022-12-20T19:29:04.809Z,2.22
2022-12-20T19:31:22.491Z,2.24
2022-12-20T19:33:39.657Z,2.25
2022-12-20T19:35:57.776Z,2.25
2022-12-20T19:38:15.119Z,2.31
2022-12-20T19:40:33.435Z,2.31
2022-12-20T19:42:50.394Z,2.29
2022-12-20T19:45:07.737Z,2.33
2022-12-20T19:47:25.095Z,2.31
2022-12-20T19:49:42.370Z,2.30
2022-12-20T19:51:59.695Z,2.30
2022-12-20T19:54:16.792Z,2.33
2022-12-20T19:56:33.926Z,2.36
2022-12-20T19:58:50.967Z,2.33
2022-12-20T20:01:08.137Z,2.33
2022-12-20T20:03:25.209Z,2.34
2022-12-20T20:05:43.322Z,2.34
2022-12-20T20:08:01.263Z,2.35
2022-12-20T20:10:18.306Z,2.36
2022-12-20T20:12:36.268Z,2.40
2022-12-20T20:14:54.244Z,2.42
2022-12-20T20:17:11.141Z,2.38
2022-12-20T20:19:28.163Z,2.41
2022-12-20T20:21:45.180Z,2.38
2022-12-20T20:24:02.519Z,2.39
2022-12-20T20:26:19.581Z,2.40
2022-12-20T20:28:42.134Z,2.42
2022-12-20T20:31:02.895Z,2.43
2022-12-20T20:33:20.021Z,2.45
2022-12-20T20:35:37.038Z,2.44
2022-12-20T20:37:54.041Z,2.47
2022-12-20T20:40:10.966Z,2.46
2022-12-20T20:42:28.008Z,2.49
2022-12-20T20:44:44.985Z,2.46
2022-12-20T20:47:01.924Z,2.48
2022-12-20T20:49:20.317Z,2.49
2022-12-20T20:51:37.426Z,2.52
2022-12-20T20:53:54.744Z,2.54
2022-12-20T20:56:11.694Z,2.56
2022-12-20T20:58:28.761Z,2.58
2022-12-20T21:00:46.833Z,2.59
2022-12-20T21:03:04.425Z,2.61
2022-12-20T21:07:58.563Z,2.63
2022-12-20T21:10:16.655Z,2.66
2022-12-20T21:12:34.019Z,2.70
2022-12-20T21:15:21.286Z,2.73
2022-12-20T21:17:28.610Z,2.74
2022-12-20T21:19:45.732Z,2.78
2022-12-20T21:22:03.016Z,2.80
2022-12-20T21:24:20.320Z,2.83
2022-12-20T21:26:37.370Z,2.85
2022-12-20T21:28:54.477Z,2.87
2022-12-20T21:31:11.610Z,2.88
2022-12-20T21:33:28.562Z,2.86
2022-12-20T21:35:51.673Z,2.86
2022-12-20T21:38:10.849Z,2.87
2022-12-20T21:40:27.905Z,2.89
2022-12-20T21:42:44.932Z,2.90
2022-12-20T21:45:01.992Z,2.93
2022-12-20T21:47:19.120Z,2.93
2022-12-20T21:49:36.032Z,2.94
2022-12-20T21:51:53.095Z,2.98
2022-12-20T21:54:10.213Z,2.99
2022-12-20T21:56:27.207Z,3.03
2022-12-20T21:58:44.164Z,3.05
2022-12-20T22:01:01.576Z,3.07
2022-12-20T22:03:18.799Z,3.07
2022-12-20T22:05:35.864Z,3.04
2022-12-20T22:07:52.915Z,3.03
2022-12-20T22:10:09.898Z,3.02
2022-12-20T22:12:26.956Z,3.03
2022-12-20T22:14:44.896Z,3.07
2022-12-20T22:17:01.863Z,3.06
2022-12-20T22:19:19.212Z,3.06
2022-12-20T22:21:36.213Z,3.11
2022-12-20T22:23:53.166Z,3.15
2022-12-20T22:26:10.218Z,3.16
2022-12-20T22:28:27.146Z,3.16
2022-12-20T22:30:44.231Z,3.14
2022-12-20T22:33:01.675Z,3.16
2022-12-20T22:35:22.742Z,3.24
2022-12-20T22:37:40.425Z,3.20
2022-12-20T22:39:58.461Z,3.17
2022-12-20T22:42:15.450Z,3.18
2022-12-20T22:44:32.534Z,3.20
2022-12-20T22:46:49.424Z,3.25
2022-12-20T22:49:06.335Z,3.28
2022-12-20T22:51:23.310Z,3.28
2022-12-20T22:53:41.347Z,3.31
2022-12-20T22:55:58.717Z,3.32
2022-12-20T22:58:16.172Z,3.34
2022-12-20T23:00:33.301Z,3.30
2022-12-20T23:02:50.515Z,3.30
2022-12-20T23:05:07.608Z,3.30
2022-12-20T23:07:24.581Z,3.32
2022-12-20T23:09:41.500Z,3.30
2022-12-20T23:11:58.725Z,3.31
2022-12-20T23:14:15.781Z,3.31
2022-12-20T23:16:33.120Z,3.31
2022-12-20T23:18:50.131Z,3.28
2022-12-20T23:21:07.186Z,3.29
2022-12-20T23:23:24.633Z,3.30
2022-12-20T23:25:41.939Z,3.29
2022-12-20T23:27:59.084Z,3.32
2022-12-20T23:30:17.142Z,3.29
2022-12-20T23:32:34.103Z,3.31
2022-12-20T23:34:51.125Z,3.30
2022-12-20T23:37:08.261Z,3.31
2022-12-20T23:39:25.335Z,3.34
2022-12-20T23:41:42.358Z,3.32
2022-12-20T23:43:59.698Z,3.32
2022-12-20T23:46:17.076Z,3.32
2022-12-20T23:48:34.178Z,3.31
2022-12-20T23:50:51.524Z,3.32
2022-12-20T23:53:08.630Z,3.36
2022-12-20T23:55:25.526Z,3.37
2022-12-20T23:57:42.382Z,3.43
2022-12-20T23:59:59.444Z,3.40
